createdAt,value
2019-05-21T00:01:57.927Z,14.11
2019-05-21T00:06:59.612Z,14.11
2019-05-21T00:12:01.282Z,14.16
2019-05-21T00:17:03.017Z,14.10
2019-05-21T00:22:04.500Z,14.07
2019-05-21T00:27:05.974Z,13.96
2019-05-21T00:33:03.704Z,13.89
2019-05-21T00:39:01.500Z,13.91
2019-05-21T00:44:05.527Z,13.83
2019-05-21T00:49:07.036Z,13.76
2019-05-21T00:54:08.614Z,13.74
2019-05-21T00:59:10.086Z,13.77
2019-05-21T01:04:12.059Z,13.80
2019-05-21T01:09:13.535Z,13.80
2019-05-21T01:14:15.283Z,13.75
2019-05-21T01:19:16.850Z,13.69
2019-05-21T01:24:18.440Z,13.64
2019-05-21T01:29:20.020Z,13.63
2019-05-21T01:34:21.497Z,13.66
2019-05-21T01:39:23.094Z,13.72
2019-05-21T01:44:24.606Z,13.74
2019-05-21T01:49:26.128Z,13.82
2019-05-21T01:54:27.595Z,13.92
2019-05-21T01:59:29.074Z,14.01
2019-05-21T02:04:30.542Z,14.06
2019-05-21T02:09:33.937Z,14.05
2019-05-21T02:14:35.451Z,13.98
2019-05-21T02:19:36.928Z,13.94
2019-05-21T02:24:38.402Z,13.91
2019-05-21T02:29:39.880Z,13.92
2019-05-21T02:34:41.373Z,13.91
2019-05-21T02:39:42.834Z,13.91
2019-05-21T02:44:44.352Z,13.87
2019-05-21T02:49:46.042Z,13.73
2019-05-21T02:54:47.508Z,13.58
2019-05-21T02:59:50.987Z,13.45
2019-05-21T03:04:52.462Z,13.35
2019-05-21T03:09:54.040Z,13.32
2019-05-21T03:14:55.663Z,13.30
2019-05-21T03:19:57.130Z,13.37
2019-05-21T03:25:02.031Z,13.43
2019-05-21T03:30:05.138Z,13.44
2019-05-21T03:35:08.618Z,13.50
2019-05-21T03:40:10.492Z,13.45
2019-05-21T03:45:13.115Z,13.39
2019-05-21T03:50:15.032Z,13.40
2019-05-21T03:55:16.613Z,13.34
2019-05-21T04:00:18.694Z,13.25
2019-05-21T04:05:24.009Z,13.23
2019-05-21T04:10:25.877Z,13.21
2019-05-21T04:15:29.311Z,13.18
2019-05-21T04:20:30.784Z,13.13
2019-05-21T04:25:32.261Z,13.14
2019-05-21T04:30:33.932Z,13.12
2019-05-21T04:35:35.417Z,13.15
2019-05-21T04:40:37.999Z,13.21
2019-05-21T04:45:39.568Z,13.26
2019-05-21T04:50:41.049Z,13.27
2019-05-21T04:55:42.516Z,13.29
2019-05-21T05:00:44.089Z,13.35
2019-05-21T05:05:45.673Z,13.37
2019-05-21T05:10:49.273Z,13.39
2019-05-21T05:15:50.672Z,13.41
2019-05-21T05:20:52.243Z,13.44
2019-05-21T05:25:53.719Z,13.52
2019-05-21T05:30:55.305Z,13.62
2019-05-21T05:35:56.785Z,13.76
2019-05-21T05:40:58.258Z,13.92
2019-05-21T05:45:59.999Z,14.11
2019-05-21T05:51:06.562Z,14.28
2019-05-21T05:56:08.037Z,14.19
2019-05-21T06:01:09.519Z,14.21
2019-05-21T06:06:10.995Z,14.24
2019-05-21T06:11:12.584Z,14.33
2019-05-21T06:16:14.100Z,14.32
2019-05-21T06:21:33.824Z,14.32
2019-05-21T06:26:35.465Z,14.31
2019-05-21T06:31:38.108Z,14.37
2019-05-21T06:36:39.688Z,14.44
2019-05-21T06:41:41.283Z,14.55
2019-05-21T06:46:42.767Z,14.70
2019-05-21T06:51:45.356Z,14.78
2019-05-21T06:56:46.832Z,14.90
2019-05-21T07:01:48.361Z,15.06
2019-05-21T07:06:50.153Z,15.25
2019-05-21T07:11:51.985Z,15.38
2019-05-21T07:16:53.485Z,15.57
2019-05-21T07:22:11.163Z,15.86
2019-05-21T07:26:58.964Z,16.30
2019-05-21T07:32:00.510Z,16.52
2019-05-21T07:37:02.008Z,16.67
2019-05-21T07:42:03.951Z,16.75
2019-05-21T07:47:05.939Z,16.91
2019-05-21T07:52:07.476Z,17.33
2019-05-21T07:57:09.051Z,17.67
2019-05-21T08:02:10.714Z,18.05
2019-05-21T08:07:12.400Z,18.29
2019-05-21T08:12:35.527Z,18.37
2019-05-21T08:17:17.287Z,18.31
2019-05-21T08:22:18.819Z,18.28
2019-05-21T08:27:20.390Z,18.26
2019-05-21T08:32:21.878Z,18.16
2019-05-21T08:37:23.467Z,18.08
2019-05-21T08:42:25.070Z,18.04
2019-05-21T08:47:26.703Z,18.04
2019-05-21T08:52:28.532Z,18.08
2019-05-21T08:57:30.007Z,18.14
2019-05-21T09:02:31.537Z,18.26
2019-05-21T09:07:33.408Z,18.41
2019-05-21T09:12:35.297Z,18.71
2019-05-21T09:17:36.866Z,18.91
2019-05-21T09:22:38.405Z,19.02
2019-05-21T09:27:40.339Z,19.14
2019-05-21T09:32:41.924Z,19.20
2019-05-21T09:37:43.512Z,19.37
2019-05-21T09:42:45.606Z,19.42
2019-05-21T09:47:47.372Z,19.34
2019-05-21T09:52:49.507Z,19.23
2019-05-21T09:57:55.933Z,19.30
2019-05-21T10:02:57.517Z,19.42
2019-05-21T10:07:59.183Z,19.60
2019-05-21T10:13:00.658Z,19.53
2019-05-21T10:18:02.503Z,19.58
2019-05-21T10:23:04.079Z,19.66
2019-05-21T10:28:05.827Z,19.66
2019-05-21T10:33:07.418Z,19.58
2019-05-21T10:38:08.985Z,19.42
2019-05-21T10:43:10.581Z,19.31
2019-05-21T10:48:12.260Z,19.33
2019-05-21T10:53:13.994Z,19.27
2019-05-21T10:58:15.819Z,19.19
2019-05-21T11:03:22.044Z,19.04
2019-05-21T11:08:25.103Z,18.85
2019-05-21T11:13:27.157Z,18.64
2019-05-21T11:18:28.720Z,18.49
2019-05-21T11:23:30.201Z,18.43
2019-05-21T11:28:31.757Z,18.36
2019-05-21T11:33:33.298Z,18.31
2019-05-21T11:38:39.862Z,18.29
2019-05-21T11:43:38.488Z,18.31
2019-05-21T11:48:40.071Z,18.36
2019-05-21T11:53:41.547Z,18.42
2019-05-21T11:58:43.122Z,18.42
2019-05-21T12:03:44.624Z,18.40
2019-05-21T12:08:56.335Z,18.46
2019-05-21T12:13:49.812Z,18.48
2019-05-21T12:18:51.422Z,18.47
2019-05-21T12:23:53.079Z,18.43
2019-05-21T12:28:55.474Z,18.36
2019-05-21T12:33:56.973Z,18.27
2019-05-21T12:39:13.136Z,18.20
2019-05-21T12:44:02.475Z,18.16
2019-05-21T12:49:05.252Z,18.14
2019-05-21T12:54:06.843Z,18.13
2019-05-21T12:59:08.480Z,18.08
2019-05-21T13:04:10.080Z,17.99
2019-05-21T13:09:11.911Z,17.92
2019-05-21T13:14:18.243Z,17.89
2019-05-21T13:19:17.141Z,17.83
2019-05-21T13:24:18.812Z,17.75
2019-05-21T13:29:21.122Z,17.66
2019-05-21T13:34:22.768Z,17.60
2019-05-21T13:39:25.768Z,17.51
2019-05-21T13:44:27.590Z,17.46
2019-05-21T13:49:29.116Z,17.43
2019-05-21T13:54:30.680Z,17.40
2019-05-21T13:59:32.457Z,17.37
2019-05-21T14:04:34.085Z,17.36
2019-05-21T14:09:35.923Z,17.41
2019-05-21T14:14:37.731Z,17.43
2019-05-21T14:19:39.257Z,17.45
2019-05-21T14:24:40.732Z,17.40
2019-05-21T14:29:42.212Z,17.36
2019-05-21T14:34:58.649Z,17.32
2019-05-21T14:39:47.268Z,17.32
2019-05-21T14:44:48.849Z,17.29
2019-05-21T14:49:50.353Z,17.26
2019-05-21T14:54:51.840Z,17.18
2019-05-21T14:59:53.328Z,17.00
2019-05-21T15:04:54.999Z,16.72
2019-05-21T15:09:56.860Z,16.52
2019-05-21T15:14:58.370Z,16.38
2019-05-21T15:20:01.786Z,16.25
2019-05-21T15:25:05.058Z,16.11
2019-05-21T15:30:07.541Z,15.97
2019-05-21T15:35:09.476Z,15.91
2019-05-21T15:40:12.158Z,15.83
2019-05-21T15:45:14.437Z,15.73
2019-05-21T15:50:16.358Z,15.58
2019-05-21T15:55:18.067Z,15.49
2019-05-21T16:00:21.564Z,15.39
2019-05-21T16:05:23.432Z,15.26
2019-05-21T16:10:25.121Z,15.11
2019-05-21T16:15:26.735Z,14.95
2019-05-21T16:20:28.582Z,14.82
2019-05-21T16:25:30.265Z,14.73
2019-05-21T16:30:31.974Z,14.74
2019-05-21T16:35:33.528Z,14.67
2019-05-21T16:40:35.364Z,14.66
2019-05-21T16:45:36.844Z,14.63
2019-05-21T16:50:38.474Z,14.62
2019-05-21T16:55:40.047Z,14.60
2019-05-21T17:00:41.972Z,14.60
2019-05-21T17:05:43.442Z,14.62
2019-05-21T17:10:45.133Z,14.63
2019-05-21T17:15:46.603Z,14.63
2019-05-21T17:20:48.200Z,14.65
2019-05-21T17:25:49.782Z,14.67
2019-05-21T17:30:51.402Z,14.69
2019-05-21T17:35:52.883Z,14.69
2019-05-21T17:40:55.100Z,14.63
2019-05-21T17:45:56.686Z,14.62
2019-05-21T17:50:58.543Z,14.60
2019-05-21T17:56:00.220Z,14.61
2019-05-21T18:01:04.239Z,14.57
2019-05-21T18:06:06.591Z,14.54
2019-05-21T18:11:08.666Z,14.51
2019-05-21T18:16:11.453Z,14.47
2019-05-21T18:21:13.226Z,14.43
2019-05-21T18:26:14.974Z,14.44
2019-05-21T18:31:17.207Z,14.47
2019-05-21T18:36:18.909Z,14.45
2019-05-21T18:41:20.601Z,14.41
2019-05-21T18:46:22.194Z,14.38
2019-05-21T18:51:23.919Z,14.37
2019-05-21T18:56:25.894Z,14.28
2019-05-21T19:01:27.996Z,14.23
2019-05-21T19:06:29.663Z,14.21
2019-05-21T19:11:31.454Z,14.22
2019-05-21T19:16:33.135Z,14.21
2019-05-21T19:21:34.867Z,14.17
2019-05-21T19:26:36.442Z,14.10
2019-05-21T19:31:38.113Z,14.09
2019-05-21T19:36:39.704Z,14.13
2019-05-21T19:41:41.493Z,14.15
2019-05-21T19:46:43.304Z,14.15
2019-05-21T19:51:44.931Z,14.13
2019-05-21T19:56:46.521Z,14.11
2019-05-21T20:01:50.005Z,14.07
2019-05-21T20:06:51.687Z,14.01
2019-05-21T20:11:53.489Z,13.98
2019-05-21T20:16:55.296Z,13.95
2019-05-21T20:21:57.855Z,13.93
2019-05-21T20:26:59.531Z,13.90
2019-05-21T20:32:01.518Z,13.83
2019-05-21T20:37:05.244Z,13.76
2019-05-21T20:42:09.516Z,13.65
2019-05-21T20:47:12.885Z,13.59
2019-05-21T20:52:18.901Z,13.52
2019-05-21T20:57:20.394Z,13.45
2019-05-21T21:02:23.386Z,13.39
2019-05-21T21:07:25.116Z,13.37
2019-05-21T21:12:26.865Z,13.37
2019-05-21T21:17:28.585Z,13.36
2019-05-21T21:22:30.506Z,13.38
2019-05-21T21:27:32.407Z,13.44
2019-05-21T21:32:35.520Z,13.50
2019-05-21T21:37:37.758Z,13.56
2019-05-21T21:42:40.897Z,13.60
2019-05-21T21:47:43.079Z,13.63
2019-05-21T21:52:45.315Z,13.65
2019-05-21T21:57:46.807Z,13.66
2019-05-21T22:02:48.376Z,13.69
2019-05-21T22:07:50.945Z,13.72
2019-05-21T22:12:52.927Z,13.72
2019-05-21T22:17:54.707Z,13.72
2019-05-21T22:22:57.370Z,13.69
2019-05-21T22:27:59.058Z,13.69
2019-05-21T22:33:00.650Z,13.72
2019-05-21T22:38:02.482Z,13.73
2019-05-21T22:43:04.283Z,13.72
2019-05-21T22:48:05.980Z,13.72
2019-05-21T22:53:08.303Z,13.72
2019-05-21T22:58:10.289Z,13.69
2019-05-21T23:03:12.597Z,13.66
2019-05-21T23:08:16.366Z,13.61
2019-05-21T23:13:17.831Z,13.59
2019-05-21T23:18:20.046Z,13.59
2019-05-21T23:23:43.993Z,13.56
2019-05-21T23:28:45.870Z,13.51
2019-05-21T23:33:49.344Z,13.46
2019-05-21T23:38:51.275Z,13.42
2019-05-21T23:43:53.072Z,13.34
2019-05-21T23:48:54.736Z,13.28
2019-05-21T23:53:57.552Z,13.25
2019-05-21T23:59:00.025Z,13.24
